Time;durP1;ratioP1;P1;durP2;ratioP2;P2;SDS_P1;SDS_P2;PMS_P1;PMS_P2;Temp;Humidity;BMP_temperature;BMP_pressure;BME280_temperature;BME280_humidity;BME280_pressure;Samples;Min_cycle;Max_cycle;Signal;HPM_P1;HPM_P2
2021/03/06 00:02:25;;;;;;;9.75;7.05;;;3.30;95.70;;;;;;5070204;28;20108;-65
2021/03/06 00:04:51;;;;;;;15.55;8.90;;;3.30;95.80;;;;;;5069237;28;20115;-65
2021/03/06 00:07:16;;;;;;;12.70;7.20;;;3.30;95.80;;;;;;5069422;28;20447;-66
2021/03/06 00:09:42;;;;;;;10.80;6.88;;;3.40;95.70;;;;;;5069952;28;20033;-66
2021/03/06 00:12:08;;;;;;;12.55;7.07;;;3.30;95.80;;;;;;5070990;28;20028;-65
2021/03/06 00:14:34;;;;;;;11.80;7.07;;;3.30;95.70;;;;;;5070487;28;20393;-66
2021/03/06 00:17:00;;;;;;;12.68;7.47;;;3.30;95.70;;;;;;5070054;28;20203;-66
2021/03/06 00:19:26;;;;;;;12.13;6.03;;;3.30;95.80;;;;;;5068823;28;20024;-65
2021/03/06 00:21:52;;;;;;;14.15;7.78;;;3.30;95.80;;;;;;5069597;28;20465;-64
2021/03/06 00:24:18;;;;;;;10.15;6.50;;;3.20;95.70;;;;;;5069140;28;20056;-66
2021/03/06 00:26:44;;;;;;;8.68;5.75;;;3.30;95.40;;;;;;5070040;28;20477;-66
2021/03/06 00:29:10;;;;;;;8.32;5.45;;;3.40;95.30;;;;;;5070747;28;20026;-65
2021/03/06 00:31:36;;;;;;;10.65;5.65;;;3.30;95.20;;;;;;5068525;28;20028;-65
2021/03/06 00:34:03;;;;;;;8.98;5.60;;;3.20;95.60;;;;;;5068269;28;20758;-65
2021/03/06 00:36:28;;;;;;;13.60;6.97;;;3.20;95.40;;;;;;5069231;28;20556;-65
2021/03/06 00:38:54;;;;;;;12.55;7.35;;;3.10;95.60;;;;;;5068372;28;20060;-66
2021/03/06 00:41:20;;;;;;;11.60;7.68;;;3.20;95.40;;;;;;5070496;28;20040;-65
2021/03/06 00:43:45;;;;;;;15.13;7.53;;;3.10;95.40;;;;;;5069611;28;20067;-65
2021/03/06 00:46:11;;;;;;;6.30;4.65;;;3.00;95.60;;;;;;5070099;28;20315;-65
2021/03/06 00:48:37;;;;;;;8.95;5.70;;;3.10;95.60;;;;;;5070130;28;20124;-65
2021/03/06 00:51:02;;;;;;;8.30;5.28;;;2.90;95.50;;;;;;5069399;28;20024;-66
2021/03/06 00:53:28;;;;;;;9.40;5.40;;;2.90;95.50;;;;;;5069926;28;20037;-65
2021/03/06 00:55:54;;;;;;;9.52;6.25;;;2.80;95.60;;;;;;5069237;28;20102;-65
2021/03/06 00:58:19;;;;;;;9.45;5.35;;;2.80;95.70;;;;;;5068634;28;20115;-66
2021/03/06 01:00:45;;;;;;;9.88;6.30;;;2.80;95.80;;;;;;5067978;28;20036;-66
2021/03/06 01:03:11;;;;;;;7.88;5.25;;;2.80;95.70;;;;;;5068510;28;20025;-66
2021/03/06 01:05:36;;;;;;;10.27;5.60;;;2.90;95.60;;;;;;5068170;28;20025;-65
2021/03/06 01:08:05;;;;;;;8.48;5.25;;;2.90;95.70;;;;;;5068326;28;20373;-64
2021/03/06 01:10:35;;;;;;;7.35;5.22;;;2.90;95.80;;;;;;5068796;28;20078;-65
2021/03/06 01:13:01;;;;;;;8.80;5.63;;;2.90;95.70;;;;;;5068052;28;20034;-64
2021/03/06 01:15:26;;;;;;;12.98;6.45;;;2.90;95.60;;;;;;5071485;28;20438;-65
2021/03/06 01:17:52;;;;;;;8.63;5.57;;;3.00;95.60;;;;;;5071626;28;20135;-64
2021/03/06 01:20:18;;;;;;;11.88;5.82;;;3.00;95.60;;;;;;5073308;28;20028;-64
2021/03/06 01:22:44;;;;;;;9.15;6.28;;;2.90;95.80;;;;;;5073388;28;20078;-64
2021/03/06 01:25:10;;;;;;;9.60;6.50;;;2.90;95.60;;;;;;5071926;28;20437;-65
2021/03/06 01:27:35;;;;;;;12.15;6.60;;;2.90;95.40;;;;;;5072310;28;20059;-66
2021/03/06 01:30:01;;;;;;;9.90;6.53;;;2.90;95.30;;;;;;5071396;28;20048;-64
2021/03/06 01:32:27;;;;;;;8.77;5.95;;;2.90;95.50;;;;;;5073043;28;20103;-65
2021/03/06 01:34:52;;;;;;;9.00;5.85;;;2.80;95.50;;;;;;5071275;28;20371;-64
2021/03/06 01:37:18;;;;;;;10.38;6.03;;;2.70;95.40;;;;;;5073032;28;20055;-64
2021/03/06 01:39:44;;;;;;;9.55;5.43;;;2.70;95.60;;;;;;5071211;28;20379;-69
2021/03/06 01:42:10;;;;;;;7.45;5.15;;;2.70;95.80;;;;;;5072936;28;20036;-65
2021/03/06 01:44:36;;;;;;;8.45;5.68;;;2.70;96.00;;;;;;5073196;28;20090;-65
2021/03/06 01:47:02;;;;;;;9.15;6.15;;;2.70;96.20;;;;;;5070479;28;20024;-65
2021/03/06 01:49:28;;;;;;;9.38;6.13;;;2.70;96.20;;;;;;5072623;28;20114;-65
2021/03/06 01:51:55;;;;;;;9.13;5.60;;;2.60;96.10;;;;;;5071998;28;20108;-65
2021/03/06 01:54:24;;;;;;;8.95;5.93;;;2.70;95.90;;;;;;5071569;28;20033;-65
2021/03/06 01:56:54;;;;;;;11.15;6.72;;;2.70;95.90;;;;;;5070878;28;20039;-65
2021/03/06 01:59:20;;;;;;;8.73;5.82;;;2.70;95.90;;;;;;5073032;28;20032;-65
2021/03/06 02:01:46;;;;;;;9.40;5.65;;;2.70;96.00;;;;;;5071213;28;20100;-69
2021/03/06 02:04:12;;;;;;;6.55;5.38;;;2.70;96.10;;;;;;5071237;28;20040;-65
2021/03/06 02:06:39;;;;;;;9.90;6.15;;;2.60;96.00;;;;;;5071604;28;20130;-64
2021/03/06 02:09:04;;;;;;;8.85;5.35;;;2.60;96.00;;;;;;5072272;28;20040;-64
2021/03/06 02:11:56;;;;;;;11.27;5.05;;;2.60;96.00;;;;;;5072657;28;20028;-65
2021/03/06 02:14:47;;;;;;;10.15;5.45;;;2.60;95.90;;;;;;5071964;28;20048;-65
2021/03/06 02:17:44;;;;;;;7.00;4.75;;;2.60;96.00;;;;;;5071207;28;20039;-65
2021/03/06 02:20:37;;;;;;;10.10;5.20;;;2.60;96.10;;;;;;5061384;28;20090;-65
2021/03/06 02:23:05;;;;;;;7.68;4.65;;;2.60;96.10;;;;;;5070559;28;20032;-64
2021/03/06 02:25:56;;;;;;;7.57;5.10;;;2.60;96.20;;;;;;5053257;28;20112;-65
2021/03/06 02:29:05;;;;;;;10.45;5.82;;;2.50;96.10;;;;;;5034588;28;20151;-65
2021/03/06 02:31:35;;;;;;;8.60;5.18;;;2.40;96.30;;;;;;5052361;28;20025;-65
2021/03/06 02:34:07;;;;;;;8.05;5.15;;;2.40;96.30;;;;;;5033376;28;20135;-65
2021/03/06 02:36:37;;;;;;;7.93;4.80;;;2.30;96.40;;;;;;5052460;28;20485;-64
2021/03/06 02:39:05;;;;;;;7.72;4.45;;;2.40;96.40;;;;;;5033799;28;20029;-64
2021/03/06 02:41:32;;;;;;;10.73;5.50;;;2.40;96.20;;;;;;5034376;28;20106;-64
2021/03/06 02:44:01;;;;;;;10.95;5.30;;;2.40;96.20;;;;;;5051256;28;20109;-65
2021/03/06 02:46:28;;;;;;;6.57;4.68;;;2.40;96.30;;;;;;5052434;28;20033;-65
2021/03/06 02:48:54;;;;;;;8.05;4.68;;;2.30;96.20;;;;;;5051223;28;20103;-64
2021/03/06 02:51:21;;;;;;;6.90;5.43;;;2.30;96.30;;;;;;5034188;28;20493;-65
2021/03/06 02:53:49;;;;;;;8.80;4.93;;;2.30;96.40;;;;;;5034172;28;20463;-66
2021/03/06 02:56:16;;;;;;;6.90;4.82;;;2.30;96.30;;;;;;5034189;28;20163;-64
2021/03/06 02:59:19;;;;;;;7.25;5.05;;;2.30;96.50;;;;;;5034175;28;20438;-63
2021/03/06 03:02:19;;;;;;;9.65;5.28;;;2.30;96.20;;;;;;5034140;28;20029;-65
2021/03/06 03:05:19;;;;;;;8.75;4.50;;;2.20;96.30;;;;;;5052144;28;20052;-65
2021/03/06 03:07:50;;;;;;;10.65;5.18;;;2.20;96.40;;;;;;5033863;28;20025;-64
2021/03/06 03:10:18;;;;;;;10.02;4.53;;;2.10;96.30;;;;;;5033337;28;20032;-64
2021/03/06 03:12:57;;;;;;;7.70;5.57;;;2.20;96.30;;;;;;5033789;28;20382;-64
2021/03/06 03:15:35;;;;;;;9.13;5.72;;;2.10;96.40;;;;;;5033893;28;20154;-65
2021/03/06 03:18:03;;;;;;;8.48;5.28;;;2.20;96.30;;;;;;5051058;28;20041;-65
2021/03/06 03:20:51;;;;;;;6.68;4.80;;;2.20;96.20;;;;;;5033637;28;20063;-64
2021/03/06 03:23:24;;;;;;;9.45;5.68;;;2.20;96.20;;;;;;5051064;28;20032;-64
2021/03/06 03:25:51;;;;;;;9.48;5.03;;;2.20;96.30;;;;;;5051139;28;20037;-70
2021/03/06 03:28:17;;;;;;;9.45;6.05;;;2.10;96.40;;;;;;5051352;28;20113;-64
2021/03/06 03:30:43;;;;;;;10.70;5.68;;;2.20;96.60;;;;;;5033197;28;20040;-64
2021/03/06 03:33:11;;;;;;;12.90;5.10;;;2.10;96.50;;;;;;5032471;28;20029;-64
2021/03/06 03:35:40;;;;;;;9.50;6.35;;;2.10;96.70;;;;;;5033396;28;20041;-65
2021/03/06 03:38:06;;;;;;;9.13;5.32;;;2.00;96.80;;;;;;5049960;28;20021;-64
2021/03/06 03:40:34;;;;;;;11.75;5.82;;;2.10;96.80;;;;;;5050992;28;20090;-64
2021/03/06 03:43:01;;;;;;;10.77;5.05;;;2.10;96.70;;;;;;5032332;28;20081;-64
2021/03/06 03:45:29;;;;;;;9.10;6.00;;;2.00;96.60;;;;;;5050556;28;20041;-64
2021/03/06 03:47:55;;;;;;;10.45;5.35;;;2.00;96.70;;;;;;5032445;28;20029;-67
2021/03/06 03:50:21;;;;;;;8.45;4.93;;;2.00;97.00;;;;;;5050485;28;20470;-64
2021/03/06 03:52:49;;;;;;;7.60;4.93;;;1.90;96.70;;;;;;5050536;28;20029;-65
2021/03/06 03:55:17;;;;;;;10.02;5.88;;;1.90;96.90;;;;;;5031824;28;20044;-64
2021/03/06 03:57:46;;;;;;;9.15;5.60;;;1.90;97.10;;;;;;5050712;28;20032;-65
2021/03/06 04:00:17;;;;;;;15.15;6.45;;;1.80;97.30;;;;;;5032191;28;20469;-64
2021/03/06 04:02:44;;;;;;;10.73;5.00;;;1.80;97.20;;;;;;5050626;28;20090;-65
2021/03/06 04:05:10;;;;;;;11.95;5.93;;;1.90;97.20;;;;;;5032062;28;20029;-64
2021/03/06 04:07:50;;;;;;;8.95;5.75;;;1.80;97.60;;;;;;5050772;28;20036;-66
2021/03/06 04:10:21;;;;;;;12.88;5.90;;;1.90;97.00;;;;;;5049842;28;20036;-64
2021/03/06 04:12:48;;;;;;;7.25;4.82;;;1.90;97.00;;;;;;5032705;28;20029;-64
2021/03/06 04:15:15;;;;;;;7.18;4.68;;;1.90;96.80;;;;;;5050093;28;20741;-64
2021/03/06 04:17:41;;;;;;;17.23;6.28;;;1.80;97.00;;;;;;5032967;28;20056;-62
2021/03/06 04:20:09;;;;;;;8.60;5.50;;;1.80;97.10;;;;;;5031809;28;20061;-65
2021/03/06 04:22:35;;;;;;;10.13;5.65;;;1.90;96.90;;;;;;5050704;28;20108;-65
2021/03/06 04:25:01;;;;;;;9.02;5.22;;;1.90;97.00;;;;;;5058413;28;20425;-65
2021/03/06 04:27:27;;;;;;;13.10;5.50;;;1.90;96.90;;;;;;5068940;28;20052;-65
2021/03/06 04:29:53;;;;;;;10.27;5.93;;;1.80;96.80;;;;;;5069991;28;20020;-69
2021/03/06 04:32:19;;;;;;;10.57;5.30;;;1.90;96.90;;;;;;5069729;28;20386;-64
2021/03/06 04:34:45;;;;;;;10.60;5.93;;;1.90;97.20;;;;;;5070310;28;20032;-64
2021/03/06 04:37:10;;;;;;;10.32;5.90;;;1.90;97.00;;;;;;5068338;28;20106;-65
2021/03/06 04:39:37;;;;;;;9.75;5.40;;;1.80;97.10;;;;;;5068933;28;20029;-65
2021/03/06 04:42:02;;;;;;;9.07;5.00;;;1.90;97.00;;;;;;5069422;28;20037;-65
2021/03/06 04:44:28;;;;;;;7.57;4.68;;;1.80;96.90;;;;;;5069057;28;20497;-65
2021/03/06 04:46:55;;;;;;;8.70;5.78;;;1.80;97.00;;;;;;5069881;28;20120;-69
2021/03/06 04:49:20;;;;;;;9.45;5.40;;;1.80;97.20;;;;;;5069763;28;20120;-65
2021/03/06 04:51:46;;;;;;;8.27;4.75;;;1.90;97.40;;;;;;5073110;28;20063;-65
2021/03/06 04:54:12;;;;;;;8.32;4.80;;;1.90;96.90;;;;;;5073331;28;20561;-64
2021/03/06 04:56:37;;;;;;;8.27;4.75;;;1.80;97.10;;;;;;5072750;28;20086;-65
2021/03/06 04:59:03;;;;;;;8.30;3.78;;;1.80;97.10;;;;;;5073693;28;20432;-64
2021/03/06 05:01:29;;;;;;;9.73;4.53;;;1.80;97.10;;;;;;5074344;28;20067;-65
2021/03/06 05:03:55;;;;;;;7.25;4.50;;;1.70;97.10;;;;;;5072382;28;20039;-68
2021/03/06 05:06:20;;;;;;;10.07;4.78;;;1.60;97.20;;;;;;5071902;28;20029;-64
2021/03/06 05:08:46;;;;;;;9.18;5.22;;;1.60;97.30;;;;;;5073571;28;20032;-64
2021/03/06 05:11:12;;;;;;;8.85;5.65;;;1.60;97.30;;;;;;5073012;28;20127;-63
2021/03/06 05:13:37;;;;;;;9.70;5.20;;;1.60;97.10;;;;;;5074055;28;20508;-64
2021/03/06 05:16:04;;;;;;;9.75;4.70;;;1.70;97.00;;;;;;5072912;28;20041;-64
2021/03/06 05:18:31;;;;;;;9.65;5.10;;;1.70;97.10;;;;;;5071832;28;20458;-64
2021/03/06 05:20:58;;;;;;;7.45;5.15;;;1.70;97.30;;;;;;5073744;28;20486;-69
2021/03/06 05:23:23;;;;;;;5.88;4.55;;;1.60;97.30;;;;;;5070376;28;20070;-64
2021/03/06 05:25:49;;;;;;;7.35;5.72;;;1.60;97.30;;;;;;5035760;28;20036;-64
2021/03/06 05:28:22;;;;;;;9.18;5.18;;;1.70;97.50;;;;;;5035040;28;20036;-64
2021/03/06 05:30:48;;;;;;;6.65;4.93;;;1.60;97.40;;;;;;5053720;28;20027;-63
2021/03/06 05:33:15;;;;;;;10.80;5.13;;;1.50;97.50;;;;;;5052423;28;20175;-63
2021/03/06 05:35:42;;;;;;;13.52;5.60;;;1.60;97.80;;;;;;5035596;28;20040;-63
2021/03/06 05:38:07;;;;;;;9.85;4.43;;;1.60;97.50;;;;;;5034925;28;20021;-63
2021/03/06 05:40:45;;;;;;;7.35;5.22;;;1.60;97.50;;;;;;5053529;28;20086;-62
2021/03/06 05:43:10;;;;;;;9.50;4.55;;;1.60;97.40;;;;;;5053045;28;20071;-64
2021/03/06 05:45:36;;;;;;;6.22;4.38;;;1.60;97.40;;;;;;5035764;28;20463;-63
2021/03/06 05:48:03;;;;;;;11.30;5.00;;;1.50;97.50;;;;;;5034215;28;20120;-65
2021/03/06 05:50:30;;;;;;;7.68;4.93;;;1.50;97.60;;;;;;5035373;28;20025;-64
2021/03/06 05:52:57;;;;;;;7.60;5.30;;;1.50;97.70;;;;;;5035296;28;20029;-64
2021/03/06 05:55:25;;;;;;;10.35;6.35;;;1.50;97.70;;;;;;5052454;28;20029;-64
2021/03/06 05:57:53;;;;;;;11.57;6.35;;;1.50;97.60;;;;;;5053384;28;20037;-64
2021/03/06 06:00:20;;;;;;;14.95;5.35;;;1.50;97.60;;;;;;5034035;28;20621;-64
2021/03/06 06:02:46;;;;;;;8.68;5.35;;;1.50;97.50;;;;;;5052826;28;20032;-63
2021/03/06 06:05:13;;;;;;;11.43;5.43;;;1.60;97.50;;;;;;5051831;28;20028;-64
2021/03/06 06:07:39;;;;;;;9.52;5.20;;;1.50;97.30;;;;;;5034747;28;20039;-64
2021/03/06 06:10:06;;;;;;;8.65;4.55;;;1.50;97.40;;;;;;5034266;28;20075;-64
2021/03/06 06:12:32;;;;;;;9.43;5.00;;;1.50;97.50;;;;;;5053137;28;20032;-65
2021/03/06 06:14:58;;;;;;;10.95;5.55;;;1.50;97.50;;;;;;5052558;28;20163;-65
2021/03/06 06:17:24;;;;;;;10.23;5.93;;;1.50;97.80;;;;;;5052262;28;20064;-64
2021/03/06 06:19:50;;;;;;;17.60;5.90;;;1.50;97.60;;;;;;5035016;28;20386;-64
2021/03/06 06:22:23;;;;;;;12.85;5.10;;;1.40;97.50;;;;;;5051630;28;20055;-64
2021/03/06 06:24:50;;;;;;;11.13;5.50;;;1.60;97.30;;;;;;5057788;28;20135;-64
2021/03/06 06:27:24;;;;;;;9.05;4.90;;;1.60;97.40;;;;;;5071961;28;20075;-65
2021/03/06 06:29:52;;;;;;;7.35;4.55;;;1.60;97.20;;;;;;5071147;28;20583;-64
2021/03/06 06:32:20;;;;;;;9.57;5.43;;;1.60;97.30;;;;;;5071937;28;20480;-64
2021/03/06 06:35:07;;;;;;;8.77;4.82;;;1.70;97.20;;;;;;5072133;28;20032;-64
2021/03/06 06:37:34;;;;;;;6.85;4.63;;;1.70;97.30;;;;;;5073143;28;20029;-65
2021/03/06 06:40:01;;;;;;;8.05;4.78;;;1.70;97.10;;;;;;5071032;28;20123;-64
2021/03/06 06:42:35;;;;;;;7.65;5.72;;;1.70;97.10;;;;;;5069759;28;20339;-64
2021/03/06 06:45:03;;;;;;;7.65;5.25;;;1.80;97.10;;;;;;5072152;28;20401;-68
2021/03/06 06:47:40;;;;;;;8.07;4.57;;;1.80;97.00;;;;;;5070591;28;20050;-65
2021/03/06 06:50:08;;;;;;;7.93;5.00;;;1.80;97.10;;;;;;5070178;28;20074;-65
2021/03/06 06:52:40;;;;;;;8.10;4.93;;;1.90;96.90;;;;;;5072467;28;20078;-65
2021/03/06 06:55:09;;;;;;;7.90;4.38;;;2.00;96.70;;;;;;5070907;28;20141;-66
2021/03/06 06:57:46;;;;;;;9.35;4.70;;;2.10;96.50;;;;;;5071826;28;20024;-64
2021/03/06 07:00:12;;;;;;;8.25;4.25;;;2.20;96.40;;;;;;5069880;28;20028;-64
2021/03/06 07:02:54;;;;;;;8.32;4.70;;;2.40;96.00;;;;;;5071597;28;20033;-65
2021/03/06 07:05:30;;;;;;;6.72;4.20;;;2.60;95.40;;;;;;5071043;28;20198;-65
2021/03/06 07:07:58;;;;;;;9.00;4.28;;;2.90;94.90;;;;;;5070332;28;20036;-65
2021/03/06 07:10:24;;;;;;;9.75;5.38;;;3.10;94.50;;;;;;5069514;28;20036;-65
2021/03/06 07:13:03;;;;;;;7.35;4.25;;;3.40;94.20;;;;;;5070156;28;20062;-65
2021/03/06 07:15:30;;;;;;;7.90;5.05;;;3.60;93.80;;;;;;5070886;28;20043;-65
2021/03/06 07:17:58;;;;;;;7.43;4.47;;;3.70;93.30;;;;;;5070021;28;20036;-65
2021/03/06 07:20:24;;;;;;;8.68;5.22;;;3.90;92.80;;;;;;5070678;28;20501;-65
2021/03/06 07:22:52;;;;;;;8.13;4.35;;;4.10;92.60;;;;;;5069860;28;20020;-66
2021/03/06 07:25:18;;;;;;;8.20;4.20;;;4.40;92.20;;;;;;5069274;28;20121;-65
2021/03/06 07:27:44;;;;;;;8.00;5.28;;;4.60;91.60;;;;;;5069935;28;20416;-66
2021/03/06 07:30:12;;;;;;;8.15;4.60;;;4.90;91.00;;;;;;5070593;28;20165;-66
2021/03/06 07:32:39;;;;;;;10.63;5.97;;;5.00;90.60;;;;;;5071480;28;20036;-66
2021/03/06 07:35:08;;;;;;;8.27;4.78;;;5.40;95.00;;;;;;5069489;28;20043;-69
2021/03/06 07:37:34;;;;;;;11.38;5.05;;;5.50;88.50;;;;;;5070412;28;20025;-66
2021/03/06 07:40:02;;;;;;;7.32;4.18;;;5.60;88.40;;;;;;5070790;28;20094;-66
2021/03/06 07:42:48;;;;;;;8.43;5.70;;;5.90;86.60;;;;;;5070083;28;20085;-65
2021/03/06 07:45:18;;;;;;;5.95;4.35;;;6.10;85.50;;;;;;5070130;28;20039;-65
2021/03/06 07:47:47;;;;;;;10.43;4.15;;;6.10;84.30;;;;;;5069111;28;20075;-66
2021/03/06 07:50:32;;;;;;;5.72;4.30;;;6.30;83.90;;;;;;5070575;28;20104;-66
2021/03/06 07:53:00;;;;;;;8.95;4.55;;;6.50;82.70;;;;;;5070664;28;20040;-66
2021/03/06 07:55:30;;;;;;;5.45;3.88;;;6.60;81.30;;;;;;5070079;28;20028;-68
2021/03/06 07:58:14;;;;;;;7.70;4.15;;;6.70;80.80;;;;;;5071106;28;20029;-66
2021/03/06 08:00:56;;;;;;;5.82;4.15;;;7.00;78.60;;;;;;5069517;28;20119;-66
2021/03/06 08:03:27;;;;;;;7.93;4.30;;;6.90;78.10;;;;;;5069002;28;20115;-67
2021/03/06 08:05:56;;;;;;;21.80;5.97;;;7.20;77.50;;;;;;5070848;28;20115;-67
2021/03/06 08:08:35;;;;;;;12.27;5.18;;;7.40;76.60;;;;;;5069797;28;20039;-67
2021/03/06 08:11:05;;;;;;;10.90;4.32;;;7.70;76.00;;;;;;5069068;28;20028;-65
2021/03/06 08:13:38;;;;;;;10.63;3.78;;;7.90;74.20;;;;;;5068361;28;20045;-66
2021/03/06 08:16:22;;;;;;;10.32;5.70;;;8.20;73.20;;;;;;5070345;28;20127;-66
2021/03/06 08:18:53;;;;;;;8.13;4.53;;;8.50;71.90;;;;;;5071138;28;20021;-66
2021/03/06 08:21:38;;;;;;;5.85;4.18;;;8.70;70.90;;;;;;5070371;28;20048;-67
2021/03/06 08:24:15;;;;;;;9.07;4.55;;;8.60;70.00;;;;;;5062961;28;20078;-67
2021/03/06 08:27:00;;;;;;;7.07;4.00;;;8.90;69.40;;;;;;5032982;28;20055;-67
2021/03/06 08:29:25;;;;;;;5.72;3.67;;;8.90;68.60;;;;;;5031859;28;20017;-67
2021/03/06 08:32:06;;;;;;;8.40;4.15;;;9.20;67.40;;;;;;5032883;28;20400;-66
2021/03/06 08:34:43;;;;;;;6.53;4.68;;;9.00;66.40;;;;;;5031807;28;20033;-67
2021/03/06 08:37:15;;;;;;;9.48;3.90;;;9.00;66.60;;;;;;5032309;28;20028;-69
2021/03/06 08:40:00;;;;;;;6.43;4.57;;;9.40;65.70;;;;;;5032428;28;20367;-67
2021/03/06 08:42:32;;;;;;;8.15;4.28;;;9.50;64.30;;;;;;5031733;28;20120;-66
2021/03/06 08:45:10;;;;;;;4.93;3.53;;;9.70;62.70;;;;;;5050898;28;20033;-67
2021/03/06 08:48:03;;;;;;;7.05;4.18;;;9.60;62.20;;;;;;5032082;28;20040;-67
2021/03/06 08:50:31;;;;;;;6.78;4.03;;;9.90;62.30;;;;;;5027708;28;20366;-67
2021/03/06 08:53:06;;;;;;;8.10;3.95;;;9.80;61.20;;;;;;5032153;28;20029;-67
2021/03/06 08:55:37;;;;;;;6.30;4.10;;;9.30;62.00;;;;;;5049488;28;20075;-67
2021/03/06 08:58:04;;;;;;;8.63;4.30;;;9.60;61.80;;;;;;5050238;28;20049;-67
2021/03/06 09:00:42;;;;;;;5.60;4.00;;;9.00;61.60;;;;;;5030918;28;20203;-67
2021/03/06 09:03:19;;;;;;;4.55;3.70;;;9.40;61.30;;;;;;5050418;28;20044;-68
2021/03/06 09:05:56;;;;;;;9.50;4.18;;;9.10;62.60;;;;;;5051109;28;20048;-66
2021/03/06 09:08:26;;;;;;;8.25;4.10;;;9.60;62.30;;;;;;5031300;28;20036;-68
2021/03/06 09:10:58;;;;;;;11.52;4.97;;;10.40;61.30;;;;;;5032219;28;20064;-67
2021/03/06 09:13:26;;;;;;;6.40;3.90;;;10.40;60.90;;;;;;5030994;28;20128;-68
2021/03/06 09:16:01;;;;;;;11.15;4.15;;;10.70;57.60;;;;;;5032270;28;20061;-66
2021/03/06 09:18:29;;;;;;;7.70;4.57;;;10.90;56.80;;;;;;5049108;28;20095;-68
2021/03/06 09:21:06;;;;;;;7.97;4.60;;;10.40;57.30;;;;;;5032032;28;20036;-67
2021/03/06 09:23:43;;;;;;;7.32;4.40;;;10.80;56.90;;;;;;5030913;28;20035;-68
2021/03/06 09:26:25;;;;;;;9.00;4.07;;;11.10;56.90;;;;;;5050571;28;20033;-68
2021/03/06 09:28:52;;;;;;;;;;;11.10;80.60;;;;;;5026974;28;20065;-67
2021/03/06 09:31:27;;;;;;;6.70;4.22;;;10.50;56.30;;;;;;5031084;28;19912;-67
2021/03/06 09:33:53;;;;;;;6.15;3.45;;;10.40;57.70;;;;;;5049896;28;20546;-68
2021/03/06 09:36:24;;;;;;;9.80;5.15;;;11.00;57.30;;;;;;5050782;28;20371;-69
2021/03/06 09:38:54;;;;;;;8.77;3.75;;;11.50;56.30;;;;;;5053814;28;20025;-69
2021/03/06 09:41:33;;;;;;;4.53;3.45;;;12.10;54.90;;;;;;5035396;28;20062;-68
2021/03/06 09:44:01;;;;;;;9.70;3.63;;;11.90;52.30;;;;;;5056316;28;20550;-69
2021/03/06 09:46:31;;;;;;;8.18;3.90;;;11.20;54.00;;;;;;5043595;28;20115;-67
2021/03/06 09:49:04;;;;;;;6.75;2.55;;;11.70;55.90;;;;;;5055858;28;20480;-69
2021/03/06 09:51:47;;;;;;;11.02;3.45;;;12.50;77.30;;;;;;5072653;28;20486;-67
2021/03/06 09:54:15;;;;;;;17.10;11.70;;;12.40;55.50;;;;;;5055080;28;20024;-70
2021/03/06 09:56:55;;;;;;;10.07;7.68;;;12.70;74.20;;;;;;5055530;28;20218;-67
2021/03/06 09:59:23;;;;;;;55.50;27.60;;;13.50;55.10;;;;;;5054769;28;20021;-66
2021/03/06 10:01:49;;;;;;;4.03;3.28;;;12.60;53.70;;;;;;5073366;28;20056;-66
2021/03/06 10:04:19;;;;;;;6.30;3.50;;;11.70;50.70;;;;;;5065066;28;20463;-70
2021/03/06 10:06:51;;;;;;;5.60;3.22;;;11.00;52.30;;;;;;5035312;28;20108;-67
2021/03/06 10:09:18;;;;;;;5.22;3.40;;;10.70;51.80;;;;;;5052268;28;20540;-71
2021/03/06 10:11:50;;;;;;;3.90;2.35;;;9.90;51.60;;;;;;5034300;28;20033;-67
2021/03/06 10:14:24;;;;;;;3.97;3.15;;;9.50;52.10;;;;;;5033752;28;20049;-68
2021/03/06 10:16:52;;;;;;;4.10;3.05;;;10.40;51.60;;;;;;5035173;28;20041;-68
2021/03/06 10:19:28;;;;;;;5.03;3.17;;;11.40;50.60;;;;;;5033207;28;20040;-68
2021/03/06 10:22:08;;;;;;;4.07;3.33;;;11.80;50.70;;;;;;5052238;28;20493;-66
2021/03/06 10:24:55;;;;;;;3.88;2.60;;;12.50;49.60;;;;;;5052661;28;20118;-66
2021/03/06 10:27:44;;;;;;;3.60;2.55;;;11.90;48.10;;;;;;5070104;28;20032;-67
2021/03/06 10:30:23;;;;;;;5.63;2.58;;;12.30;47.40;;;;;;5071218;28;20119;-67
2021/03/06 10:32:53;;;;;;;6.88;2.88;;;12.90;48.00;;;;;;5071137;28;20091;-67
2021/03/06 10:35:38;;;;;;;3.47;2.65;;;12.40;45.90;;;;;;5070178;28;20507;-68
2021/03/06 10:38:07;;;;;;;2.33;2.10;;;11.80;46.80;;;;;;5070792;28;20065;-67
2021/03/06 10:40:59;;;;;;;5.80;2.67;;;11.30;46.50;;;;;;5070201;28;20212;-68
2021/03/06 10:43:40;;;;;;;8.35;2.25;;;12.10;46.90;;;;;;5065931;28;20458;-68
2021/03/06 10:46:28;;;;;;;3.90;2.10;;;13.20;45.50;;;;;;5071899;28;20113;-67
2021/03/06 10:48:55;;;;;;;3.20;2.40;;;12.80;44.20;;;;;;5069984;28;20051;-67
2021/03/06 10:51:22;;;;;;;9.18;3.53;;;12.50;44.50;;;;;;5069777;28;20423;-68
2021/03/06 10:54:02;;;;;;;4.05;2.75;;;12.30;45.30;;;;;;5070883;28;20028;-68
2021/03/06 10:56:28;;;;;;;3.92;2.30;;;11.60;45.50;;;;;;5069941;28;20444;-66
2021/03/06 10:58:54;;;;;;;3.70;2.20;;;12.30;43.70;;;;;;5070261;28;20158;-68
2021/03/06 11:01:19;;;;;;;3.85;2.50;;;13.20;42.40;;;;;;5070023;28;20478;-67
2021/03/06 11:03:47;;;;;;;7.32;1.73;;;13.90;42.90;;;;;;5070598;28;20031;-67
2021/03/06 11:06:14;;;;;;;6.32;2.78;;;14.50;41.20;;;;;;5070717;28;20051;-67
2021/03/06 11:08:41;;;;;;;2.60;2.00;;;14.60;41.90;;;;;;5070109;28;20024;-67
2021/03/06 11:11:08;;;;;;;6.55;2.45;;;15.00;40.80;;;;;;5070481;28;20024;-67
2021/03/06 11:13:45;;;;;;;11.30;3.50;;;15.30;40.50;;;;;;5070716;28;20219;-69
2021/03/06 11:16:14;;;;;;;3.22;2.45;;;15.70;39.20;;;;;;5070500;28;20032;-68
2021/03/06 11:18:42;;;;;;;2.00;1.80;;;14.80;39.10;;;;;;5069538;28;20024;-67
2021/03/06 11:21:13;;;;;;;5.68;3.92;;;14.80;38.20;;;;;;5070760;28;20120;-66
2021/03/06 11:23:42;;;;;;;3.58;2.65;;;14.90;37.60;;;;;;5066643;28;20041;-67
2021/03/06 11:26:08;;;;;;;3.28;2.15;;;14.80;38.20;;;;;;5051577;28;20041;-66
2021/03/06 11:28:34;;;;;;;5.95;3.90;;;14.50;38.40;;;;;;5050781;28;20074;-67
2021/03/06 11:31:00;;;;;;;50.35;5.20;;;14.90;42.30;;;;;;5051030;28;20355;-69
2021/03/06 11:33:26;;;;;;;27.58;6.03;;;15.40;46.50;;;;;;5050230;28;20029;-69
2021/03/06 11:35:52;;;;;;;5.85;3.50;;;16.00;48.80;;;;;;5033188;28;20033;-70
2021/03/06 11:38:22;;;;;;;5.68;2.67;;;16.20;39.90;;;;;;5032889;28;20036;-75
2021/03/06 11:40:49;;;;;;;13.73;4.50;;;16.30;48.50;;;;;;5033233;28;20033;-71
2021/03/06 11:43:16;;;;;;;8.40;3.58;;;16.30;43.40;;;;;;5032866;28;20033;-73
2021/03/06 11:45:42;;;;;;;13.52;4.65;;;16.70;44.90;;;;;;5050550;28;20036;-67
2021/03/06 11:48:09;;;;;;;25.52;7.97;;;16.60;42.80;;;;;;5033184;28;20025;-54
2021/03/06 11:50:37;;;;;;;14.05;5.32;;;16.80;58.30;;;;;;5031981;28;20048;-54
2021/03/06 11:53:03;;;;;;;18.02;6.07;;;17.40;60.40;;;;;;5050973;28;20419;-56
2021/03/06 11:55:29;;;;;;;6.75;2.92;;;17.60;89.50;;;;;;5047174;28;20042;-54
2021/03/06 11:57:55;;;;;;;7.47;2.25;;;17.60;57.70;;;;;;5070984;28;20025;-54
2021/03/06 12:00:24;;;;;;;2.47;2.28;;;17.30;48.40;;;;;;5069732;28;20100;-75
2021/03/06 12:02:50;;;;;;;4.90;2.65;;;17.00;40.50;;;;;;5037394;28;20056;-68
2021/03/06 12:05:16;;;;;;;3.42;2.05;;;16.90;40.60;;;;;;5035493;28;20029;-69
2021/03/06 12:07:44;;;;;;;5.18;3.70;;;15.90;41.10;;;;;;5049874;28;20106;-69
2021/03/06 12:10:13;;;;;;;4.07;2.30;;;16.20;40.10;;;;;;5033063;28;20025;-69
2021/03/06 12:12:39;;;;;;;4.82;2.40;;;16.70;37.90;;;;;;5049634;28;20032;-69
2021/03/06 12:15:06;;;;;;;16.05;3.15;;;16.90;36.00;;;;;;5032645;28;20339;-68
2021/03/06 12:17:32;;;;;;;2.80;2.17;;;16.80;35.30;;;;;;5049393;28;20458;-70
2021/03/06 12:19:58;;;;;;;4.22;2.38;;;15.80;35.40;;;;;;5032759;28;20029;-68
2021/03/06 12:22:24;;;;;;;2.47;2.03;;;16.30;36.40;;;;;;5031684;28;20084;-69
2021/03/06 12:24:50;;;;;;;3.97;2.33;;;16.40;37.20;;;;;;5050018;28;20056;-68
2021/03/06 12:27:16;;;;;;;2.30;2.10;;;16.00;35.50;;;;;;5050496;28;20028;-68
2021/03/06 12:29:42;;;;;;;3.38;2.20;;;15.30;36.40;;;;;;5049321;28;20097;-68
2021/03/06 12:32:09;;;;;;;4.13;2.67;;;14.90;36.90;;;;;;5032120;28;20167;-69
2021/03/06 12:34:35;;;;;;;3.83;2.15;;;15.10;36.80;;;;;;5049591;28;20044;-69
2021/03/06 12:37:01;;;;;;;3.10;2.10;;;15.60;36.40;;;;;;5032170;28;20200;-70
2021/03/06 12:39:27;;;;;;;7.25;2.35;;;15.50;36.80;;;;;;5031704;28;20021;-71
2021/03/06 12:41:53;;;;;;;2.42;1.75;;;16.00;36.60;;;;;;5032010;28;20167;-69
2021/03/06 12:44:19;;;;;;;3.95;3.38;;;15.40;36.90;;;;;;5032056;28;20029;-70
2021/03/06 12:46:47;;;;;;;3.30;2.00;;;16.00;36.80;;;;;;5049492;28;20025;-71
2021/03/06 12:49:14;;;;;;;4.60;2.95;;;16.10;36.80;;;;;;5031482;28;20033;-69
2021/03/06 12:51:40;;;;;;;9.52;2.40;;;16.60;36.00;;;;;;5039447;28;20033;-71
2021/03/06 12:54:06;;;;;;;5.72;2.70;;;16.50;37.30;;;;;;5049555;28;20028;-71
2021/03/06 12:56:32;;;;;;;3.08;2.63;;;16.70;36.80;;;;;;5033004;28;20028;-72
2021/03/06 12:58:57;;;;;;;3.55;2.65;;;16.80;35.90;;;;;;5062887;28;20150;-68
2021/03/06 13:01:23;;;;;;;3.88;2.78;;;16.60;35.80;;;;;;5087113;28;20473;-74
2021/03/06 13:03:49;;;;;;;9.18;2.75;;;16.20;36.20;;;;;;5071297;28;20115;-70
2021/03/06 13:06:14;;;;;;;7.07;2.58;;;16.40;37.20;;;;;;5089870;28;20111;-70